Tiempo atmosférico en la estación meteorológica de Arcos de Jalón, Soria (863 m.)



Fecha
DESCASC
Temp. máxima en grados centígrados (hora)
DESCASC
Temp. mínima en grados centígrados (hora)
DESCASC
Temp. media en grados centígrados
DESCASC
Racha de viento máxima en m/sg (hora)
DESCASC
Velocidad máxima media en intervalos de 10 minutos(hora)
DESCASC
Precipitaciones diarias en mm
DESCASC
Precipitaciones de 00:00 a 06:00 en mm
DESCASC
Precipitaciones de 06:00 a 12:00 en mm
DESCASC
Precipitaciones de 12:00 a 18:00 en mm
DESCASC
Precipitaciones de 18:00 a 24:00 en mm
DESCASC
24-09-2020 21.9 (15:40) 14.2 (23:10) 18 16.11 (18:10) 11.67 (17:20) 0 0 0 0 0
23-09-2020 22.7 (15:10) 11.9 (00:00) 17.3 12.5 (13:20) 8.89 (13:30) 0.2 0 0.2 0 0
22-09-2020 22.9 (16:20) 9.3 (00:00) 16.1 7.22 (16:50) 4.72 (18:00) 0 0 0 0 0
21-09-2020 23.1 (17:00) 13 (00:00) 18.1 6.67 (22:40) 5 (22:40) 0 0 0 0 0
20-09-2020 23.1 (16:30) 12.9 (00:00) 18 10.28 (18:50) 6.67 (15:10) 0 0 0 0 0
19-09-2020 19.5 (16:00) 12.6 (00:00) 16.1 14.72 (15:40) 9.17 (09:30) 2.4 2.4 0 0 0
18-09-2020 22.4 (17:20) 14.2 (00:00) 18.3 14.44 (19:40) 8.33 (19:30) 0.6 0.2 0 0 0.4
17-09-2020 27.8 (16:00) 17.6 (00:00) 22.7 11.94 (16:30) 6.67 (16:00) 1.6 0 0 0 1.6
16-09-2020 29.4 (15:20) 14.2 (08:10) 21.8 8.61 (17:40) 5 (17:40) 0 0 0 0 0
15-09-2020 29.2 (16:10) 16.1 (00:00) 22.7 10.28 (15:00) 6.39 (15:30) 0 0 0 0 0
14-09-2020 31 (16:00) 12.8 (00:00) 21.9 9.17 (16:10) 5.83 (16:20) 0 0 0 0 0
13-09-2020 31.9 (15:00) 12.9 (00:00) 22.4 6.94 (17:00) 3.61 (20:10) 0 0 0 0 0
12-09-2020 30.4 (17:40) 11.5 (07:30) 20.9 7.5 (20:20) 4.17 (20:20) 0 0 0 0 0
11-09-2020 30.5 (17:20) 10.7 (00:00) 20.6 7.22 (16:20) 4.72 (04:00) 0 0 0 0 0
10-09-2020 28 (16:50) 11.3 (00:00) 19.7 8.89 (14:40) 4.72 (14:40) 0 0 0 0 0
09-09-2020 27.7 (17:00) 9.7 (07:40) 18.7 8.33 (22:20) 4.17 (08:50) 0 0 0 0 0
08-09-2020 24.2 (17:30) 6.1 (00:00) 15.2 9.17 (19:40) 5.28 (19:40) 0 0 0 0 0
07-09-2020 22.4 (17:20) 7 (07:30) 14.7 10.28 (17:00) 5.83 (11:10) 0 0 0 0 0
06-09-2020 28 (16:40) 11.7 (00:00) 19.8 11.11 (22:20) 6.11 (21:30) 0 0 0 0 0
05-09-2020 30.8 (17:00) 13.5 (00:00) 22.1 8.89 (19:30) 5 (19:00) 0 0 0 0 0
04-09-2020 32.7 (18:10) 12.7 (00:00) 22.7 5.83 (18:50) 3.61 (05:40) 0 0 0 0 0
03-09-2020 30.9 (17:50) 8.5 (00:00) 19.7 5.56 (19:10) 3.61 (04:50) 0 0 0 0 0
02-09-2020 26.3 (16:40) 8.9 (00:00) 17.6 5.83 (21:10) 3.89 (21:10) 0 0 0 0 0
01-09-2020 26 (18:20) 10.6 (00:00) 18.3 9.44 (19:40) 5.83 (19:40) 0 0 0 0 0
31-08-2020 26.3 (17:20) 5.6 (00:00) 15.9 8.61 (18:20) 4.17 (18:00) 0 0 0 0 0
30-08-2020 21.4 (16:40) 6.3 (00:00) 13.8 8.61 (20:10) 4.72 (19:50) 0 0 0 0 0
29-08-2020 21.9 (16:50) 8.7 (00:00) 15.3 14.17 (17:40) 8.89 (17:50) 0 0 0 0 0
28-08-2020 30.5 (17:00) 14.6 (00:00) 22.6 10.83 (19:30) 6.67 (18:10) 0 0 0 0 0
27-08-2020 35.3 (16:10) 15.9 (00:00) 25.6 11.39 (17:20) 5.83 (17:10) 0 0 0 0 0
26-08-2020 36.3 (16:30) 15.1 (00:00) 25.7 12.22 (15:20) 6.39 (15:40) 0 0 0 0 0

Gráficas

Temp. máximas Temp. mínimas Temp. medias Precipitaciones Rachas de viento máximas Velocidades máximas media en intervalos de 10 minutos

Datos horarios

Fecha y hora oficial Temperatura (ºC) Velocidad del viento (km/h) Dirección del viento Racha (km/h) Dirección de racha Precipitación (mm) Presión (hPa) Tendencia (hPa) Humedad (%)
2020-09-24 23:00:00 14.4 14 Sudoeste 31 Sudoeste 0 -- -- 58
2020-09-24 22:00:00 16.1 22 Sudoeste 37 Sudoeste 0 -- -- 50
2020-09-24 21:00:00 16.9 26 Sudoeste 38 Sudoeste 0 -- -- 48
2020-09-24 20:00:00 18.6 19 Sudoeste 43 Sudoeste 0 -- -- 44
2020-09-24 19:00:00 20 33 Sudoeste 58 Sudoeste 0 -- -- 40
2020-09-24 18:00:00 21.8 33 Sudoeste 57 Sudoeste 0 -- -- 36
2020-09-24 17:00:00 21.5 35 Sudoeste 54 Oeste 0 -- -- 42
2020-09-24 16:00:00 21.1 31 Oeste 54 Sudoeste 0 -- -- 48
2020-09-24 15:00:00 21.6 30 Sudoeste 47 Sudoeste 0 -- -- 50
2020-09-24 14:00:00 21 28 Sudoeste 47 Sur 0 -- -- 51
2020-09-24 13:00:00 18.8 23 Sudoeste 35 Sudoeste 0 -- -- 67
2020-09-24 12:00:00 17.6 19 Sudoeste 28 Sur 0 -- -- 72
2020-09-24 11:00:00 17.6 15 Sudoeste 24 Sudoeste 0 -- -- 74
2020-09-24 10:00:00 16.9 9 Sudoeste 17 Sudoeste 0 -- -- 78
2020-09-24 09:00:00 15.8 8 Sudoeste 11 Sudoeste 0 -- -- 83
2020-09-24 08:00:00 15.3 6 Sudoeste 11 Sudoeste 0 -- -- 85
2020-09-24 07:00:00 15.3 9 Sudoeste 19 Oeste 0 -- -- 84
2020-09-24 06:00:00 14.8 11 Oeste 15 Oeste 0 -- -- 86
2020-09-24 05:00:00 14.7 8 Sudoeste 13 Oeste 0 -- -- 86
2020-09-24 04:00:00 14.6 6 Oeste 15 Sudoeste 0 -- -- 83
2020-09-24 03:00:00 14.6 8 Oeste 17 Sudoeste 0 -- -- 84
2020-09-24 02:00:00 15 11 Sudoeste 13 Sudoeste 0 -- -- 83
2020-09-24 01:00:00 15.6 8 Sudoeste 17 Sudoeste 0 -- -- 81
2020-09-24 00:00:00 16.2 10 Oeste 14 Oeste 0 -- -- 80
2020-09-23 23:00:00 17.3 10 Sudoeste 26 Sudoeste 0 -- -- 78
2020-09-23 22:00:00 17 12 Sudoeste 24 Sudoeste 0 -- -- 76
2020-09-23 21:00:00 18.5 18 Sudoeste 29 Sudoeste 0 -- -- 67
2020-09-23 20:00:00 18.9 16 Sudoeste 30 Sudoeste 0 -- -- 65
2020-09-23 19:00:00 19.8 18 Sudoeste 34 Sudoeste 0 -- -- 61
2020-09-23 18:00:00 20.9 21 Sudoeste 42 Sudoeste 0 -- -- 58
2020-09-23 17:00:00 22.3 27 Sur 37 Sur 0 -- -- 54
2020-09-23 16:00:00 21.7 28 Sudoeste 43 Sudoeste 0 -- -- 55
2020-09-23 15:00:00 22.6 25 Sur 40 Sudoeste 0 -- -- 55
2020-09-23 14:00:00 20.3 28 Sudoeste 45 Sudoeste 0 -- -- 63
2020-09-23 13:00:00 18.8 27 Sudoeste 42 Sudoeste 0 -- -- 72
2020-09-23 12:00:00 16.1 11 Sur 28 Sudoeste 0 -- -- 86
2020-09-23 11:00:00 14.9 13 Sudoeste 27 Sudoeste 0.2 -- -- 86
2020-09-23 10:00:00 15 10 Sudoeste 20 Sudoeste 0 -- -- 79
2020-09-23 09:00:00 13.3 12 Sudoeste 19 Sudoeste 0 -- -- 83
2020-09-23 08:00:00 12.2 13 Oeste 18 Sudoeste 0 -- -- 84
2020-09-23 07:00:00 12.3 13 Oeste 19 Oeste 0 -- -- 83
2020-09-23 06:00:00 12.3 11 Oeste 15 Oeste 0 -- -- 81
2020-09-23 05:00:00 11.9 9 Sudoeste 13 Oeste 0 -- -- 80
2020-09-23 04:00:00 12.2 4 Sudoeste 16 Oeste 0 -- -- 79
2020-09-23 03:00:00 12.1 4 Sur 18 Sudoeste 0 -- -- 80
2020-09-23 02:00:00 12.4 12 Sudoeste 17 Oeste 0 -- -- 79
2020-09-23 01:00:00 13 8 Sudoeste 14 Oeste 0 -- -- 79
2020-09-23 00:00:00 14.3 4 Sudoeste 9 Sur 0 -- -- 78
2020-09-22 23:00:00 15.9 5 Sur 22 Sudoeste 0 -- -- 72
2020-09-22 22:00:00 16.2 6 Oeste 11 Oeste 0 -- -- 64
2020-09-22 21:00:00 18.8 7 Sudoeste 15 Sudoeste 0 -- -- 56
2020-09-22 20:00:00 19.4 8 Sudoeste 20 Oeste 0 -- -- 55
2020-09-22 19:00:00 21.1 12 Sudoeste 26 Sudoeste 0 -- -- 47
2020-09-22 18:00:00 22.4 17 Oeste 25 Oeste 0 -- -- 44
2020-09-22 17:00:00 22.5 12 Sudoeste 26 Sudoeste 0 -- -- 45
2020-09-22 16:00:00 22.7 5 Norte 13 Sudoeste 0 -- -- 47
2020-09-22 15:00:00 20.5 4 Oeste 12 Norte 0 -- -- 53
2020-09-22 14:00:00 20.3 8 Nordeste 13 Este 0 -- -- 61
2020-09-22 13:00:00 19.1 5 Este 12 Nordeste 0 -- -- 68
2020-09-22 12:00:00 17.8 3 Norte 9 Este 0 -- -- 73
2020-09-22 11:00:00 16.7 4 Norte 8 Nordeste 0 -- -- 79
2020-09-22 10:00:00 13.8 2 Sudoeste 12 Sudoeste 0 -- -- 91
2020-09-22 09:00:00 10.5 9 Sudoeste 15 Sudoeste 0 -- -- 93
2020-09-22 08:00:00 9.3 8 Sudoeste 11 Sudoeste 0 -- -- 93
2020-09-22 07:00:00 9.7 6 Sudoeste 13 Sudoeste 0 -- -- 93
2020-09-22 06:00:00 9.9 9 Sudoeste 12 Sudoeste 0 -- -- 92
2020-09-22 05:00:00 10.6 8 Sudoeste 12 Sudoeste 0 -- -- 92
2020-09-22 04:00:00 11.2 9 Sudoeste 11 Sudoeste 0 -- -- 90
2020-09-22 03:00:00 12 9 Sudoeste 13 Sudoeste 0 -- -- 90
2020-09-22 02:00:00 13 3 Sudoeste 7 Sudoeste 0 -- -- 88
2020-09-22 01:00:00 13.6 5 Sudoeste 12 Sudoeste 0 -- -- 87
2020-09-22 00:00:00 14.4 12 Sudoeste 19 Sudoeste 0 -- -- 85
2020-09-21 23:00:00 15.4 8 Noroeste 24 Oeste 0 -- -- 83
2020-09-21 22:00:00 17.9 8 Noroeste 15 Norte 0 -- -- 67
2020-09-21 21:00:00 18.8 4 Noroeste 13 Norte 0 -- -- 57
2020-09-21 20:00:00 19.6 8 Oeste 11 Oeste 0 -- -- 51
2020-09-21 19:00:00 20.7 6 Oeste 13 Noroeste 0 -- -- 50
2020-09-21 18:00:00 21.8 5 Oeste 15 Oeste 0 -- -- 48
2020-09-21 17:00:00 23.1 7 Sur 16 Oeste 0 -- -- 46
2020-09-21 16:00:00 21.1 6 Oeste 16 Sudoeste 0 -- -- 52
2020-09-21 15:00:00 19.9 4 Sur 14 Oeste 0 -- -- 57
2020-09-21 14:00:00 19.4 4 Sudoeste 17 Oeste 0 -- -- 61
2020-09-21 13:00:00 18.9 3 Noroeste 16 Oeste 0 -- -- 66
2020-09-21 12:00:00 17.6 7 Noroeste 18 Oeste 0 -- -- 72
2020-09-21 11:00:00 16.5 9 Oeste 16 Oeste 0 -- -- 78
2020-09-21 10:00:00 15.5 5 Oeste 16 Sudoeste 0 -- -- 83
2020-09-21 09:00:00 14.7 11 Sudoeste 16 Sudoeste 0 -- -- 85
2020-09-21 08:00:00 13.8 3 Sudoeste 10 Sudoeste 0 -- -- 89
2020-09-21 07:00:00 13.3 4 Sudoeste 8 Sudoeste 0 -- -- 91
2020-09-21 06:00:00 13.1 0 Calma 7 Sudoeste 0 -- -- 90
2020-09-21 05:00:00 13.3 4 Sudoeste 9 Sudoeste 0 -- -- 89
2020-09-21 04:00:00 13.3 5 Sur 11 Oeste 0 -- -- 90
2020-09-21 03:00:00 14.1 0 Calma 9 Sudoeste 0 -- -- 87
2020-09-21 02:00:00 15.3 6 Sudoeste 9 Sudoeste 0 -- -- 86
2020-09-21 01:00:00 15.4 3 Sudoeste 9 Sudoeste 0 -- -- 87
2020-09-21 00:00:00 15.3 6 Oeste 11 Oeste 0 -- -- 87
2020-09-20 23:00:00 15.7 8 Sudoeste 15 Sudoeste 0 -- -- 86
2020-09-20 22:00:00 16.1 8 Sudoeste 15 Sudoeste 0 -- -- 83
2020-09-20 21:00:00 16.6 6 Sudoeste 12 Sudoeste 0 -- -- 81
2020-09-20 20:00:00 17.2 9 Sudoeste 27 Oeste 0 -- -- 76
2020-09-20 19:00:00 17.3 18 Noroeste 37 Oeste 0 -- -- 75
2020-09-20 18:00:00 20.4 13 Oeste 31 Sur 0 -- -- 61
2020-09-20 17:00:00 22.4 21 Sur 34 Sur 0 -- -- 55
2020-09-20 16:00:00 22.7 21 Sur 35 Sudoeste 0 -- -- 53
2020-09-20 15:00:00 21 22 Sur 36 Sur 0 -- -- 60
2020-09-20 14:00:00 19.3 18 Sur 31 Sur 0 -- -- 65
2020-09-20 13:00:00 19.3 19 Sur 30 Sur 0 -- -- 64
2020-09-20 12:00:00 19.6 19 Sur 31 Sur 0 -- -- 63
2020-09-20 11:00:00 17.7 10 Sur 29 Sudoeste 0 -- -- 74
2020-09-20 10:00:00 16.6 19 Sudoeste 29 Sudoeste 0 -- -- 76
2020-09-20 09:00:00 14.6 3 Sudeste 12 Sudoeste 0 -- -- 85
2020-09-20 08:00:00 14 9 Sudoeste 15 Sudoeste 0 -- -- 86
2020-09-20 07:00:00 14.2 0 Calma 6 Sudoeste 0 -- -- 84
2020-09-20 06:00:00 14.3 0 Calma 4 Noroeste 0 -- -- 84
2020-09-20 05:00:00 14.4 2 Sudoeste 12 Sudoeste 0 -- -- 83
2020-09-20 04:00:00 14.3 6 Sudoeste 14 Oeste 0 -- -- 83
2020-09-20 03:00:00 14 12 Sudoeste 17 Sudoeste 0 -- -- 83
2020-09-20 02:00:00 13.2 9 Oeste 13 Oeste 0 -- -- 86
2020-09-20 01:00:00 13.7 13 Sudoeste 21 Sudoeste 0 -- -- 82
2020-09-20 00:00:00 13.3 9 Sudoeste 14 Sudoeste 0 -- -- 86
2020-09-19 23:00:00 14.8 10 Sudoeste 18 Sudoeste 0 -- -- 81
2020-09-19 22:00:00 14.9 6 Sudoeste 20 Sudoeste 0 -- -- 82
2020-09-19 21:00:00 15.6 14 Sur 30 Sur 0 -- -- 78
2020-09-19 20:00:00 16.5 19 Sur 40 Sur 0 -- -- 74
2020-09-19 19:00:00 17.3 24 Sudoeste 44 Sur 0 -- -- 71
2020-09-19 18:00:00 17.8 27 Sur 48 Sur 0 -- -- 70
2020-09-19 17:00:00 18.6 27 Sur 53 Sur 0 -- -- 68
2020-09-19 16:00:00 19.5 30 Sur 53 Sur 0 -- -- 64
2020-09-19 15:00:00 18.1 30 Sur 46 Sudoeste 0 -- -- 73
2020-09-19 14:00:00 17.6 23 Sur 46 Sur 0 -- -- 72
2020-09-19 13:00:00 16.5 25 Sur 49 Sur 0 -- -- 76
2020-09-19 12:00:00 16.2 21 Sur 42 Sur 0 -- -- 76
2020-09-19 11:00:00 15.6 27 Sur 49 Sudeste 0 -- -- 78
2020-09-19 10:00:00 16 26 Sur 48 Sur 0 -- -- 79
2020-09-19 09:00:00 14.6 19 Sur 33 Sur 0 -- -- 83
2020-09-19 08:00:00 14.2 18 Sur 30 Sur 0 -- -- 84
2020-09-19 07:00:00 14 9 Sur 31 Sur 0 -- -- 88
2020-09-19 06:00:00 13.3 12 Sur 22 Sur 0 -- -- 90
2020-09-19 05:00:00 12.8 10 Sur 42 Sur 1.4 -- -- 86
2020-09-19 04:00:00 15 29 Sur 47 Sudoeste 1 -- -- 81
2020-09-19 03:00:00 15 10 Sur 24 Sur 0 -- -- 81
2020-09-19 02:00:00 14.8 0 Calma 16 Sur 0 -- -- 82
2020-09-19 01:00:00 15.1 13 Sur 21 Sur 0 -- -- 78
2020-09-19 00:00:00 14.7 6 Sur 20 Sur 0 -- -- 79
2020-09-18 23:00:00 15.1 13 Sur 19 Sur 0 -- -- 79
2020-09-18 22:00:00 14.2 5 Sudoeste 11 Sudoeste 0 -- -- 85
2020-09-18 21:00:00 14.9 6 Sur 32 Sur 0 -- -- 80
2020-09-18 20:00:00 15.8 23 Sur 52 Sur 0.4 -- -- 76
2020-09-18 19:00:00 20.5 21 Sur 41 Sur 0 -- -- 56
2020-09-18 18:00:00 21.6 13 Sur 25 Sur 0 -- -- 51
2020-09-18 17:00:00 20.9 14 Sudeste 26 Sur 0 -- -- 53
2020-09-18 16:00:00 19.7 19 Sur 32 Sur 0 -- -- 60
2020-09-18 15:00:00 18.2 15 Sur 32 Sudeste 0 -- -- 70
2020-09-18 14:00:00 20.5 18 Sur 27 Sur 0 -- -- 63
2020-09-18 13:00:00 21.4 23 Sur 33 Sur 0 -- -- 55
2020-09-18 12:00:00 20.5 20 Sur 37 Sur 0 -- -- 62
2020-09-18 11:00:00 18.8 6 Sudeste 15 Sur 0 -- -- 70
2020-09-18 10:00:00 17.2 3 Sudoeste 8 Sur 0 -- -- 87
2020-09-18 09:00:00 16.7 3 Oeste 8 Este 0 -- -- 88
2020-09-18 08:00:00 17 2 Norte 10 Sudoeste 0 -- -- 86
2020-09-18 07:00:00 16.2 0 Calma 14 Sur 0 -- -- 91
2020-09-18 06:00:00 16.3 2 Sur 8 Nordeste 0 -- -- 89
2020-09-18 05:00:00 16.7 0 Calma 6 Sur 0 -- -- 86
2020-09-18 04:00:00 17 3 Noroeste 18 Sur 0.2 -- -- 84
2020-09-18 03:00:00 17.9 12 Sur 25 Sudoeste 0 -- -- 77
2020-09-18 02:00:00 18 5 Sudoeste 20 Sur 0 -- -- 76
2020-09-18 01:00:00 18.2 17 Sur 29 Sur 0 -- -- 80
2020-09-18 00:00:00 18.2 13 Sur 31 Sur 1.6 -- -- 80
2020-09-17 23:00:00 19.4 2 Sudeste 5 Norte 0 -- -- 60
2020-09-17 22:00:00 19.9 0 Calma 6 Este 0 -- -- 59
2020-09-17 21:00:00 21.4 3 Nordeste 6 Sur 0 -- -- 55
2020-09-17 20:00:00 23.2 5 Sur 16 Sur 0 -- -- 51
2020-09-17 19:00:00 24.2 14 Sur 31 Sur 0 -- -- 49
2020-09-17 18:00:00 25.1 20 Sur 35 Sur 0 -- -- 47
2020-09-17 17:00:00 26.1 17 Sudeste 43 Sur 0 -- -- 43
2020-09-17 16:00:00 27.8 24 Sur 38 Sudoeste 0 -- -- 38
2020-09-17 15:00:00 26.3 14 Sur 32 Sur 0 -- -- 43
2020-09-17 14:00:00 25.6 17 Sur 32 Sudeste 0 -- -- 44
2020-09-17 13:00:00 25 15 Sudeste 33 Sudeste 0 -- -- 45
2020-09-17 12:00:00 23.4 3 Nordeste 9 Norte 0 -- -- 49
2020-09-17 11:00:00 21.3 2 Sudeste 4 Sudeste 0 -- -- 56
2020-09-17 10:00:00 19.4 0 Calma 7 Sudoeste 0 -- -- 62
2020-09-17 09:00:00 18.2 6 Sudoeste 9 Sudoeste 0 -- -- 65
2020-09-17 08:00:00 17.8 0 Calma 5 Nordeste 0 -- -- 66
2020-09-17 07:00:00 18 3 Nordeste 7 Nordeste 0 -- -- 65
2020-09-17 06:00:00 18 4 Norte 10 Nordeste 0 -- -- 65
2020-09-17 05:00:00 17.7 3 Oeste 12 Sudeste 0 -- -- 67
2020-09-17 04:00:00 18.4 3 Sudoeste 6 Sur 0 -- -- 64
2020-09-17 03:00:00 18.3 3 Norte 13 Oeste 0 -- -- 64
2020-09-17 02:00:00 19.1 8 Sudoeste 18 Oeste 0 -- -- 61
2020-09-17 01:00:00 19.1 8 Sudoeste 12 Sudoeste 0 -- -- 61
2020-09-17 00:00:00 20.4 3 Sudeste 8 Sudeste 0 -- -- 58
2020-09-16 23:00:00 21.6 2 Sur 7 Nordeste 0 -- -- 54
2020-09-16 22:00:00 23.3 6 Norte 13 Sur 0 -- -- 50
2020-09-16 21:00:00 24.1 4 Nordeste 13 Este 0 -- -- 48
2020-09-16 20:00:00 25.7 5 Este 27 Nordeste 0 -- -- 43
2020-09-16 19:00:00 27.3 10 Este 27 Nordeste 0 -- -- 39
2020-09-16 18:00:00 27.9 15 Nordeste 31 Nordeste 0 -- -- 39
2020-09-16 17:00:00 28.4 13 Nordeste 31 Nordeste 0 -- -- 36
2020-09-16 16:00:00 28.8 9 Nordeste 23 Nordeste 0 -- -- 35
2020-09-16 15:00:00 28.7 7 Nordeste 18 Nordeste 0 -- -- 35
2020-09-16 14:00:00 28.3 9 Nordeste 19 Este 0 -- -- 37
2020-09-16 13:00:00 27.1 7 Nordeste 18 Nordeste 0 -- -- 40
2020-09-16 12:00:00 25.2 6 Nordeste 13 Este 0 -- -- 45
2020-09-16 11:00:00 22.8 4 Este 8 Este 0 -- -- 50
2020-09-16 10:00:00 19.1 2 Sur 9 Sudoeste 0 -- -- 62
2020-09-16 09:00:00 15.2 6 Sudoeste 10 Sudoeste 0 -- -- 73
2020-09-16 08:00:00 14.3 6 Sudoeste 9 Sudoeste 0 -- -- 73
2020-09-16 07:00:00 15 4 Sudoeste 13 Sudoeste 0 -- -- 71
2020-09-16 06:00:00 15.8 10 Sudoeste 15 Oeste 0 -- -- 68
2020-09-16 05:00:00 15.1 12 Sudoeste 19 Oeste 0 -- -- 69
2020-09-16 04:00:00 15.7 13 Sudoeste 17 Oeste 0 -- -- 68
2020-09-16 03:00:00 16.2 12 Sudoeste 17 Sudoeste 0 -- -- 66
2020-09-16 02:00:00 16.8 14 Sudoeste 19 Oeste 0 -- -- 65
2020-09-16 01:00:00 17.1 14 Oeste 18 Sudoeste 0 -- -- 64
2020-09-16 00:00:00 17.7 12 Oeste 15 Oeste 0 -- -- 62
2020-09-15 23:00:00 18.2 8 Sudoeste 10 Sudoeste 0 -- -- 59
2020-09-15 22:00:00 20.1 6 Sudoeste 11 Oeste 0 -- -- 54
2020-09-15 21:00:00 22.1 10 Oeste 13 Oeste 0 -- -- 49
2020-09-15 20:00:00 25.7 12 Sudoeste 28 Sur 0 -- -- 41
2020-09-15 19:00:00 27.3 15 Sudoeste 36 Sudoeste 0 -- -- 39
2020-09-15 18:00:00 28.6 21 Sudoeste 36 Sudoeste 0 -- -- 37
2020-09-15 17:00:00 29.1 20 Sudoeste 36 Sudoeste 0 -- -- 35
2020-09-15 16:00:00 29.1 20 Sudoeste 35 Sudoeste 0 -- -- 36
2020-09-15 15:00:00 28.3 17 Sudoeste 37 Sudoeste 0 -- -- 38
2020-09-15 14:00:00 27.9 14 Sur 29 Sudoeste 0 -- -- 40
2020-09-15 13:00:00 26.5 15 Sur 26 Sudoeste 0 -- -- 42
2020-09-15 12:00:00 22.2 7 Oeste 11 Oeste 0 -- -- 62
2020-09-15 11:00:00 19.1 3 Sudoeste 19 Sudoeste 0 -- -- 72
2020-09-15 10:00:00 17.8 3 Norte 19 Sudoeste 0 -- -- 76
2020-09-15 09:00:00 18.1 10 Sudoeste 17 Oeste 0 -- -- 66
2020-09-15 08:00:00 16.8 4 Sur 17 Oeste 0 -- -- 64
2020-09-15 07:00:00 16.2 9 Sudoeste 16 Sudoeste 0 -- -- 65
2020-09-15 06:00:00 16.5 7 Sudoeste 12 Sudoeste 0 -- -- 62
2020-09-15 05:00:00 17.8 9 Sudoeste 15 Sudoeste 0 -- -- 58
2020-09-15 04:00:00 19.2 6 Sudoeste 18 Sudoeste 0 -- -- 54
2020-09-15 03:00:00 20.6 5 Norte 10 Norte 0 -- -- 50
2020-09-15 02:00:00 21.7 5 Nordeste 12 Sudoeste 0 -- -- 47
2020-09-15 01:00:00 21.8 8 Sudoeste 15 Oeste 0 -- -- 47
2020-09-15 00:00:00 20.9 5 Sudoeste 13 Oeste 0 -- -- 50
2020-09-14 23:00:00 21 3 Nordeste 18 Oeste 0 -- -- 53
2020-09-14 22:00:00 21.3 6 Oeste 14 Sudoeste 0 -- -- 54
2020-09-14 21:00:00 23.9 4 Noroeste 15 Nordeste 0 -- -- 43
2020-09-14 20:00:00 26.1 4 Sudoeste 12 Sur 0 -- -- 36
2020-09-14 19:00:00 27 4 Este 14 Sudoeste 0 -- -- 35
2020-09-14 18:00:00 27.3 10 Sudoeste 26 Sur 0 -- -- 35
2020-09-14 17:00:00 28.1 15 Sur 33 Sur 0 -- -- 30
2020-09-14 16:00:00 31 19 Sur 31 Sudoeste 0 -- -- 26
2020-09-14 15:00:00 28.9 8 Nordeste 23 Este 0 -- -- 27
2020-09-14 14:00:00 27.7 6 Nordeste 15 Nordeste 0 -- -- 31
2020-09-14 13:00:00 26 9 Nordeste 17 Nordeste 0 -- -- 34
2020-09-14 12:00:00 24.2 9 Nordeste 15 Nordeste 0 -- -- 39
2020-09-14 11:00:00 22.4 7 Nordeste 10 Este 0 -- -- 44
2020-09-14 10:00:00 19.9 3 Este 6 Este 0 -- -- 49
2020-09-14 09:00:00 16.1 2 Sudoeste 13 Sudoeste 0 -- -- 61
2020-09-14 08:00:00 13 9 Sudoeste 17 Sur 0 -- -- 69
2020-09-14 07:00:00 13.7 5 Sudoeste 7 Sudoeste 0 -- -- 62
2020-09-14 06:00:00 15.5 3 Norte 9 Norte 0 -- -- 55
2020-09-14 05:00:00 16.2 3 Nordeste 10 Este 0 -- -- 53
2020-09-14 04:00:00 16.9 3 Norte 9 Nordeste 0 -- -- 50
2020-09-14 03:00:00 18.4 3 Nordeste 19 Oeste 0 -- -- 47
2020-09-14 02:00:00 19.3 8 Oeste 20 Oeste 0 -- -- 46
2020-09-14 01:00:00 18.8 10 Sudoeste 14 Oeste 0 -- -- 43
2020-09-14 00:00:00 19.3 7 Sudoeste 13 Sudoeste 0 -- -- 42
2020-09-13 23:00:00 21 8 Sur 15 Sudeste 0 -- -- 39
2020-09-13 22:00:00 23.3 5 Norte 9 Norte 0 -- -- 34
2020-09-13 21:00:00 25.7 2 Sudeste 21 Nordeste 0 -- -- 32
2020-09-13 20:00:00 28.5 11 Nordeste 20 Nordeste 0 -- -- 28
2020-09-13 19:00:00 30.5 12 Norte 21 Norte 0 -- -- 25
2020-09-13 18:00:00 31.4 9 Nordeste 23 Oeste 0 -- -- 25
2020-09-13 17:00:00 31.8 13 Nordeste 25 Norte 0 -- -- 25
2020-09-13 16:00:00 31.7 9 Nordeste 21 Sudeste 0 -- -- 26
2020-09-13 15:00:00 31.9 6 Sudeste 20 Sur 0 -- -- 24
2020-09-13 14:00:00 30 9 Nordeste 19 Nordeste 0 -- -- 29
2020-09-13 13:00:00 27.9 9 Nordeste 16 Este 0 -- -- 33
2020-09-13 12:00:00 25.3 7 Nordeste 12 Nordeste 0 -- -- 41
2020-09-13 11:00:00 22.6 8 Nordeste 12 Nordeste 0 -- -- 48
2020-09-13 10:00:00 18.9 2 Sudeste 8 Sudoeste 0 -- -- 58
2020-09-13 09:00:00 14.4 5 Sur 12 Oeste 0 -- -- 69
2020-09-13 08:00:00 12.9 10 Sudoeste 14 Oeste 0 -- -- 72
2020-09-13 07:00:00 13.7 10 Sudoeste 16 Sudoeste 0 -- -- 68
2020-09-13 06:00:00 13 9 Sudoeste 13 Sudoeste 0 -- -- 69
2020-09-13 05:00:00 13.5 11 Sudoeste 13 Sudoeste 0 -- -- 67
2020-09-13 04:00:00 14 9 Sudoeste 11 Sudoeste 0 -- -- 64
2020-09-13 03:00:00 14.5 7 Sudoeste 11 Sur 0 -- -- 61
2020-09-13 02:00:00 15.1 3 Sudoeste 9 Oeste 0 -- -- 58
2020-09-13 01:00:00 15.7 5 Sudoeste 10 Sudoeste 0 -- -- 56
2020-09-13 00:00:00 17 3 Sudoeste 5 Sudoeste 0 -- -- 51
2020-09-12 23:00:00 19.7 0 Calma 5 Norte 0 -- -- 45
2020-09-12 22:00:00 22.5 2 Nordeste 13 Nordeste 0 -- -- 41
2020-09-12 21:00:00 24.6 10 Nordeste 27 Norte 0 -- -- 37
2020-09-12 20:00:00 27.4 5 Norte 13 Norte 0 -- -- 23
2020-09-12 19:00:00 28.6 6 Norte 16 Noroeste 0 -- -- 21
2020-09-12 18:00:00 30 8 Noroeste 20 Noroeste 0 -- -- 21
2020-09-12 17:00:00 29.7 6 Norte 17 Norte 0 -- -- 25
2020-09-12 16:00:00 29.3 7 Noroeste 15 Noroeste 0 -- -- 29
2020-09-12 15:00:00 28.3 10 Nordeste 21 Norte 0 -- -- 32
2020-09-12 14:00:00 27.6 6 Nordeste 18 Nordeste 0 -- -- 36
2020-09-12 13:00:00 25.6 5 Este 15 Nordeste 0 -- -- 40
2020-09-12 12:00:00 24 9 Nordeste 17 Este 0 -- -- 44
2020-09-12 11:00:00 22.1 8 Nordeste 13 Nordeste 0 -- -- 48
2020-09-12 10:00:00 18 2 Sudoeste 16 Sudoeste 0 -- -- 62
2020-09-12 09:00:00 13.9 12 Sudoeste 15 Sudoeste 0 -- -- 73
2020-09-12 08:00:00 11.6 9 Sudoeste 13 Sudoeste 0 -- -- 79
2020-09-12 07:00:00 11.6 6 Sudoeste 12 Sudoeste 0 -- -- 78
2020-09-12 06:00:00 12.5 11 Sudoeste 15 Sudoeste 0 -- -- 75
2020-09-12 05:00:00 12.7 10 Sudoeste 15 Sudoeste 0 -- -- 74
2020-09-12 04:00:00 13.6 7 Sudoeste 12 Oeste 0 -- -- 70
2020-09-12 03:00:00 14.4 6 Sudoeste 11 Sudoeste 0 -- -- 68
2020-09-12 02:00:00 15.3 4 Sudoeste 10 Sudoeste 0 -- -- 64
2020-09-12 01:00:00 16.3 4 Sudoeste 5 Sudeste 0 -- -- 61
2020-09-12 00:00:00 17.6 0 Calma 4 Norte 0 -- -- 57
2020-09-11 23:00:00 20 3 Sur 5 Nordeste 0 -- -- 50
2020-09-11 22:00:00 22.6 4 Nordeste 19 Nordeste 0 -- -- 46
2020-09-11 21:00:00 24.3 12 Norte 25 Nordeste 0 -- -- 41
2020-09-11 20:00:00 27 5 Norte 14 Oeste 0 -- -- 26
2020-09-11 19:00:00 28.5 5 Noroeste 17 Oeste 0 -- -- 22
2020-09-11 18:00:00 29.9 8 Noroeste 21 Noroeste 0 -- -- 21
2020-09-11 17:00:00 30.1 7 Norte 26 Sudoeste 0 -- -- 22
2020-09-11 16:00:00 30.1 8 Noroeste 22 Sudoeste 0 -- -- 24
2020-09-11 15:00:00 28.6 6 Norte 17 Oeste 0 -- -- 28
2020-09-11 14:00:00 26.9 6 Norte 17 Norte 0 -- -- 32
2020-09-11 13:00:00 25.5 6 Norte 14 Nordeste 0 -- -- 35
2020-09-11 12:00:00 23.9 8 Nordeste 14 Nordeste 0 -- -- 38
2020-09-11 11:00:00 21.9 3 Este 9 Norte 0 -- -- 43
2020-09-11 10:00:00 18.3 6 Oeste 15 Oeste 0 -- -- 52
2020-09-11 09:00:00 13.6 13 Sudoeste 17 Sudoeste 0 -- -- 63
2020-09-11 08:00:00 11.1 13 Sudoeste 17 Sudoeste 0 -- -- 70
2020-09-11 07:00:00 11.3 12 Sudoeste 17 Sudoeste 0 -- -- 69
2020-09-11 06:00:00 11.4 11 Sudoeste 17 Sudoeste 0 -- -- 69
2020-09-11 05:00:00 12.2 13 Sudoeste 20 Oeste 0 -- -- 66
2020-09-11 04:00:00 13.1 17 Oeste 21 Oeste 0 -- -- 64
2020-09-11 03:00:00 13.5 8 Oeste 17 Oeste 0 -- -- 61
2020-09-11 02:00:00 13.9 10 Oeste 17 Sudoeste 0 -- -- 60
2020-09-11 01:00:00 14.3 2 Oeste 5 Sudoeste 0 -- -- 56
2020-09-11 00:00:00 15.9 3 Sudoeste 6 Sur 0 -- -- 51
2020-09-10 23:00:00 18 0 Calma 8 Sur 0 -- -- 46
2020-09-10 22:00:00 21.1 3 Este 17 Norte 0 -- -- 40
2020-09-10 21:00:00 22.9 11 Norte 19 Norte 0 -- -- 36
2020-09-10 20:00:00 25.1 8 Norte 24 Nordeste 0 -- -- 32
2020-09-10 19:00:00 26.2 11 Norte 26 Norte 0 -- -- 30
2020-09-10 18:00:00 27.3 14 Norte 32 Norte 0 -- -- 28
2020-09-10 17:00:00 28 13 Norte 28 Norte 0 -- -- 28
2020-09-10 16:00:00 27.3 10 Norte 31 Norte 0 -- -- 31
2020-09-10 15:00:00 27.1 12 Norte 32 Norte 0 -- -- 32
2020-09-10 14:00:00 26.7 15 Noroeste 30 Noroeste 0 -- -- 33
2020-09-10 13:00:00 25.7 13 Norte 24 Norte 0 -- -- 35
2020-09-10 12:00:00 24.2 7 Norte 18 Noroeste 0 -- -- 39
2020-09-10 11:00:00 22 4 Norte 13 Nordeste 0 -- -- 46
2020-09-10 10:00:00 18.9 5 Sudeste 11 Sudoeste 0 -- -- 55
2020-09-10 09:00:00 14.7 8 Sudoeste 14 Sudoeste 0 -- -- 68
2020-09-10 08:00:00 11.5 8 Sudoeste 12 Sudoeste 0 -- -- 75
2020-09-10 07:00:00 11.9 4 Sudoeste 11 Sudoeste 0 -- -- 73
2020-09-10 06:00:00 12.7 7 Sudoeste 12 Sur 0 -- -- 71
2020-09-10 05:00:00 13.3 9 Sur 15 Sur 0 -- -- 71
2020-09-10 04:00:00 14.9 0 Calma 13 Noroeste 0 -- -- 65
2020-09-10 03:00:00 16.4 4 Oeste 11 Este 0 -- -- 63
2020-09-10 02:00:00 17.7 5 Norte 27 Noroeste 0 -- -- 60
2020-09-10 01:00:00 18.6 13 Norte 24 Noroeste 0 -- -- 57
2020-09-10 00:00:00 19 4 Norte 13 Nordeste 0 -- -- 54
2020-09-09 23:00:00 20.7 8 Norte 30 Norte 0 -- -- 49
2020-09-09 22:00:00 21.5 15 Norte 25 Noroeste 0 -- -- 44
2020-09-09 21:00:00 22.4 3 Nordeste 12 Nordeste 0 -- -- 36
2020-09-09 20:00:00 24.6 9 Nordeste 23 Nordeste 0 -- -- 32
2020-09-09 19:00:00 26 11 Norte 23 Norte 0 -- -- 29
2020-09-09 18:00:00 26.8 4 Norte 22 Norte 0 -- -- 28
2020-09-09 17:00:00 27.7 11 Oeste 25 Sudeste 0 -- -- 28
2020-09-09 16:00:00 27 9 Noroeste 18 Norte 0 -- -- 29
2020-09-09 15:00:00 25.8 10 Norte 27 Norte 0 -- -- 31
2020-09-09 14:00:00 25.2 9 Norte 23 Norte 0 -- -- 32
2020-09-09 13:00:00 24.1 9 Este 18 Nordeste 0 -- -- 35
2020-09-09 12:00:00 23.5 5 Sur 13 Sur 0 -- -- 37
2020-09-09 11:00:00 21.6 4 Oeste 10 Oeste 0 -- -- 39
2020-09-09 10:00:00 17.7 8 Oeste 14 Oeste 0 -- -- 47
2020-09-09 09:00:00 12.2 13 Sudoeste 18 Sudoeste 0 -- -- 61
2020-09-09 08:00:00 10.1 12 Sudoeste 15 Sudoeste 0 -- -- 65
2020-09-09 07:00:00 10.4 10 Sudoeste 13 Sudoeste 0 -- -- 63
2020-09-09 06:00:00 11.4 12 Oeste 15 Sudoeste 0 -- -- 60
2020-09-09 05:00:00 10.9 11 Sudoeste 15 Sudoeste 0 -- -- 61
2020-09-09 04:00:00 10.7 9 Sudoeste 14 Sudoeste 0 -- -- 61
2020-09-09 03:00:00 11 7 Sudoeste 11 Sudoeste 0 -- -- 60
2020-09-09 02:00:00 11.7 9 Sudoeste 12 Oeste 0 -- -- 59
2020-09-09 01:00:00 12.1 6 Sudoeste 12 Sudoeste 0 -- -- 56
2020-09-09 00:00:00 13.3 4 Sudoeste 7 Sur 0 -- -- 52
2020-09-08 23:00:00 15.1 0 Calma 3 Sudoeste 0 -- -- 48
2020-09-08 22:00:00 18.1 0 Calma 13 Nordeste 0 -- -- 41
2020-09-08 21:00:00 20.2 9 Nordeste 33 Nordeste 0 -- -- 38
2020-09-08 20:00:00 22.1 17 Nordeste 33 Nordeste 0 -- -- 35
2020-09-08 19:00:00 23.3 17 Nordeste 31 Norte 0 -- -- 32
2020-09-08 18:00:00 24 14 Norte 29 Norte 0 -- -- 31
2020-09-08 17:00:00 24 9 Norte 26 Nordeste 0 -- -- 30
2020-09-08 16:00:00 23.7 12 Nordeste 24 Norte 0 -- -- 31
2020-09-08 15:00:00 22.8 12 Nordeste 26 Norte 0 -- -- 32
2020-09-08 14:00:00 21.4 14 Nordeste 26 Norte 0 -- -- 38
2020-09-08 13:00:00 19.4 11 Norte 23 Nordeste 0 -- -- 44
2020-09-08 12:00:00 17.9 11 Nordeste 22 Nordeste 0 -- -- 48
2020-09-08 11:00:00 16.1 11 Nordeste 20 Norte 0 -- -- 54
2020-09-08 10:00:00 12.7 3 Nordeste 10 Oeste 0 -- -- 65
2020-09-08 09:00:00 8.6 10 Oeste 12 Sudoeste 0 -- -- 78
2020-09-08 08:00:00 6.1 9 Sudoeste 13 Sudoeste 0 -- -- 82
2020-09-08 07:00:00 6.6 11 Sudoeste 13 Sudoeste 0 -- -- 81
2020-09-08 06:00:00 7.2 10 Sudoeste 13 Sudoeste 0 -- -- 80
2020-09-08 05:00:00 7.2 2 Sudoeste 10 Sudoeste 0 -- -- 76
2020-09-08 04:00:00 8.3 7 Sudoeste 10 Sudoeste 0 -- -- 74
2020-09-08 03:00:00 9.6 3 Sudoeste 7 Nordeste 0 -- -- 68
2020-09-08 02:00:00 11.4 3 Nordeste 18 Noroeste 0 -- -- 65
2020-09-08 01:00:00 11.7 5 Noroeste 23 Noroeste 0 -- -- 62
2020-09-08 00:00:00 12.7 6 Noroeste 17 Nordeste 0 -- -- 56
2020-09-07 23:00:00 13.9 6 Norte 20 Nordeste 0 -- -- 52
2020-09-07 22:00:00 15.6 13 Norte 24 Nordeste 0 -- -- 45
2020-09-07 21:00:00 17.4 14 Norte 26 Noroeste 0 -- -- 40
2020-09-07 20:00:00 19.4 11 Noroeste 27 Norte 0 -- -- 33
2020-09-07 19:00:00 20.7 13 Norte 28 Norte 0 -- -- 33
2020-09-07 18:00:00 21.9 18 Norte 32 Norte 0 -- -- 30
2020-09-07 17:00:00 22 20 Norte 37 Noroeste 0 -- -- 28
2020-09-07 16:00:00 21.8 15 Norte 33 Noroeste 0 -- -- 31
2020-09-07 15:00:00 21.1 17 Norte 33 Noroeste 0 -- -- 34
2020-09-07 14:00:00 20.4 17 Noroeste 32 Nordeste 0 -- -- 36
2020-09-07 13:00:00 19.2 17 Norte 35 Norte 0 -- -- 41
2020-09-07 12:00:00 17.7 13 Norte 36 Norte 0 -- -- 48
2020-09-07 11:00:00 16.1 18 Norte 34 Norte 0 -- -- 53
2020-09-07 10:00:00 15 15 Norte 31 Noroeste 0 -- -- 55
2020-09-07 09:00:00 10.5 4 Sur 12 Sudoeste 0 -- -- 73
2020-09-07 08:00:00 7.8 8 Sudoeste 14 Oeste 0 -- -- 81
2020-09-07 07:00:00 7.8 3 Sudoeste 6 Sudoeste 0 -- -- 77
2020-09-07 06:00:00 8.7 4 Sur 6 Sur 0 -- -- 75
2020-09-07 05:00:00 10.3 0 Calma 8 Nordeste 0 -- -- 70
2020-09-07 04:00:00 11.8 5 Nordeste 15 Nordeste 0 -- -- 68
2020-09-07 03:00:00 12.4 5 Nordeste 20 Nordeste 0 -- -- 68
2020-09-07 02:00:00 12.7 3 Nordeste 16 Noroeste 0 -- -- 66
2020-09-07 01:00:00 13.4 12 Noroeste 31 Noroeste 0 -- -- 65
2020-09-07 00:00:00 14.1 12 Noroeste 31 Norte 0 -- -- 63
2020-09-06 23:00:00 15.1 17 Noroeste 40 Noroeste 0 -- -- 60
2020-09-06 22:00:00 16.8 19 Noroeste 35 Noroeste 0 -- -- 55
2020-09-06 21:00:00 18.6 21 Noroeste 34 Noroeste 0 -- -- 50
2020-09-06 20:00:00 21.9 16 Noroeste 30 Noroeste 0 -- -- 45
2020-09-06 19:00:00 25 14 Nordeste 31 Nordeste 0 -- -- 42
2020-09-06 18:00:00 26.8 12 Nordeste 22 Nordeste 0 -- -- 39
2020-09-06 17:00:00 27.7 9 Norte 24 Nordeste 0 -- -- 36
2020-09-06 16:00:00 27.6 14 Nordeste 22 Nordeste 0 -- -- 39
2020-09-06 15:00:00 25.9 9 Nordeste 20 Nordeste 0 -- -- 42
2020-09-06 14:00:00 24.4 8 Nordeste 17 Nordeste 0 -- -- 47
2020-09-06 13:00:00 22.2 6 Nordeste 21 Norte 0 -- -- 54
2020-09-06 12:00:00 20.2 6 Nordeste 17 Norte 0 -- -- 61
2020-09-06 11:00:00 18 7 Nordeste 16 Nordeste 0 -- -- 68
2020-09-06 10:00:00 15.6 5 Nordeste 10 Norte 0 -- -- 77
2020-09-06 09:00:00 12.8 2 Sur 4 Sur 0 -- -- 83
2020-09-06 08:00:00 11.7 0 Calma 5 Sudoeste 0 -- -- 83
2020-09-06 07:00:00 12 0 Calma 4 Sudoeste 0 -- -- 82
2020-09-06 06:00:00 12.9 0 Calma 3 Sur 0 -- -- 79
2020-09-06 05:00:00 13.8 0 Calma 4 Sudoeste 0 -- -- 78
2020-09-06 04:00:00 14.7 0 Calma 3 Sudeste 0 -- -- 75
2020-09-06 03:00:00 16.3 0 Calma 4 Nordeste 0 -- -- 71
2020-09-06 02:00:00 17.4 0 Calma 5 Sur 0 -- -- 68
2020-09-06 01:00:00 18.6 2 Nordeste 5 Nordeste 0 -- -- 65
2020-09-06 00:00:00 20.2 2 Este 15 Norte 0 -- -- 61
2020-09-05 23:00:00 21.4 11 Nordeste 24 Nordeste 0 -- -- 58
2020-09-05 22:00:00 22.9 13 Nordeste 27 Nordeste 0 -- -- 54
2020-09-05 21:00:00 25 12 Nordeste 24 Nordeste 0 -- -- 47
2020-09-05 20:00:00 27.1 15 Nordeste 32 Nordeste 0 -- -- 36
2020-09-05 19:00:00 28.7 18 Nordeste 30 Nordeste 0 -- -- 33
2020-09-05 18:00:00 30.5 13 Nordeste 23 Nordeste 0 -- -- 29
2020-09-05 17:00:00 30.8 11 Nordeste 27 Nordeste 0 -- -- 28
2020-09-05 16:00:00 30.3 12 Nordeste 24 Nordeste 0 -- -- 30
2020-09-05 15:00:00 30 12 Nordeste 22 Nordeste 0 -- -- 30
2020-09-05 14:00:00 28.8 8 Nordeste 19 Este 0 -- -- 33
2020-09-05 13:00:00 27.5 10 Nordeste 19 Nordeste 0 -- -- 34
2020-09-05 12:00:00 26.4 5 Nordeste 13 Nordeste 0 -- -- 40
2020-09-05 11:00:00 23.8 8 Nordeste 12 Nordeste 0 -- -- 47
2020-09-05 10:00:00 21.6 3 Sudoeste 12 Oeste 0 -- -- 54
2020-09-05 09:00:00 17 10 Oeste 15 Oeste 0 -- -- 64
2020-09-05 08:00:00 14 8 Sudoeste 13 Sudoeste 0 -- -- 70
2020-09-05 07:00:00 13.5 8 Sudoeste 13 Sudoeste 0 -- -- 66
2020-09-05 06:00:00 15 2 Sudoeste 10 Sudoeste 0 -- -- 59
2020-09-05 05:00:00 16.5 6 Sudoeste 18 Sudoeste 0 -- -- 56
2020-09-05 04:00:00 18.1 3 Oeste 18 Sudoeste 0 -- -- 49
2020-09-05 03:00:00 16.4 13 Oeste 18 Sudoeste 0 -- -- 53
2020-09-05 02:00:00 17 13 Sudoeste 17 Sudoeste 0 -- -- 56
2020-09-05 01:00:00 18.1 10 Sudoeste 14 Sur 0 -- -- 53
2020-09-05 00:00:00 19.5 9 Sudoeste 12 Sudoeste 0 -- -- 49
2020-09-04 23:00:00 20.8 4 Sudoeste 7 Sur 0 -- -- 45
2020-09-04 22:00:00 24.9 3 Nordeste 13 Nordeste 0 -- -- 37
2020-09-04 21:00:00 27.1 8 Norte 16 Nordeste 0 -- -- 34
2020-09-04 20:00:00 29.9 9 Nordeste 18 Norte 0 -- -- 26
2020-09-04 19:00:00 30.9 9 Nordeste 21 Nordeste 0 -- -- 27
2020-09-04 18:00:00 32.4 5 Nordeste 15 Este 0 -- -- 25
2020-09-04 17:00:00 31.9 9 Nordeste 20 Este 0 -- -- 26
2020-09-04 16:00:00 32.1 8 Este 19 Nordeste 0 -- -- 27
2020-09-04 15:00:00 31 6 Este 20 Este 0 -- -- 29
2020-09-04 14:00:00 29.7 8 Nordeste 17 Nordeste 0 -- -- 32
2020-09-04 13:00:00 28.3 4 Sudoeste 14 Nordeste 0 -- -- 36
2020-09-04 12:00:00 25.8 7 Norte 13 Norte 0 -- -- 42
2020-09-04 11:00:00 23.1 6 Nordeste 10 Nordeste 0 -- -- 48
2020-09-04 10:00:00 20.7 3 Nordeste 5 Nordeste 0 -- -- 55
2020-09-04 09:00:00 16.3 0 Calma 9 Sudoeste 0 -- -- 64
2020-09-04 08:00:00 12.9 7 Sudoeste 13 Sudoeste 0 -- -- 73
2020-09-04 07:00:00 13 3 Oeste 12 Oeste 0 -- -- 68
2020-09-04 06:00:00 13.5 8 Sudoeste 15 Sudoeste 0 -- -- 65
2020-09-04 05:00:00 13.9 12 Sudoeste 15 Sudoeste 0 -- -- 61
2020-09-04 04:00:00 14.4 12 Sudoeste 15 Sudoeste 0 -- -- 58
2020-09-04 03:00:00 15.1 11 Sudoeste 15 Sudoeste 0 -- -- 55
2020-09-04 02:00:00 15.3 6 Sudoeste 10 Sudoeste 0 -- -- 54
2020-09-04 01:00:00 16.4 11 Sudoeste 13 Sudoeste 0 -- -- 52
2020-09-04 00:00:00 17.3 4 Sudoeste 11 Sudoeste 0 -- -- 48
2020-09-03 23:00:00 20.1 3 Sur 11 Norte 0 -- -- 39
2020-09-03 22:00:00 23.7 7 Norte 18 Nordeste 0 -- -- 35
2020-09-03 21:00:00 25.7 8 Nordeste 17 Nordeste 0 -- -- 27
2020-09-03 20:00:00 28.4 8 Nordeste 20 Norte 0 -- -- 23
2020-09-03 19:00:00 29.4 8 Nordeste 17 Norte 0 -- -- 22
2020-09-03 18:00:00 30.6 10 Nordeste 19 Norte 0 -- -- 21
2020-09-03 17:00:00 30.1 8 Norte 18 Nordeste 0 -- -- 21
2020-09-03 16:00:00 30.4 6 Noroeste 18 Sudoeste 0 -- -- 23
2020-09-03 15:00:00 29.4 5 Este 14 Sudeste 0 -- -- 27
2020-09-03 14:00:00 27.4 7 Nordeste 16 Nordeste 0 -- -- 31
2020-09-03 13:00:00 24.8 6 Nordeste 17 Nordeste 0 -- -- 39
2020-09-03 12:00:00 22.4 9 Nordeste 15 Nordeste 0 -- -- 40
2020-09-03 11:00:00 20 10 Nordeste 13 Este 0 -- -- 42
2020-09-03 10:00:00 17 0 Calma 11 Sudoeste 0 -- -- 48
2020-09-03 09:00:00 12.2 9 Sudoeste 15 Sudoeste 0 -- -- 60
2020-09-03 08:00:00 8.7 10 Sudoeste 13 Sudoeste 0 -- -- 70
2020-09-03 07:00:00 8.6 9 Sudoeste 14 Sudoeste 0 -- -- 70
2020-09-03 06:00:00 9.5 9 Sudoeste 15 Sudoeste 0 -- -- 66
2020-09-03 05:00:00 10.5 12 Sudoeste 16 Oeste 0 -- -- 63
2020-09-03 04:00:00 11.2 11 Oeste 14 Sudoeste 0 -- -- 61
2020-09-03 03:00:00 10.9 9 Sudoeste 14 Sudoeste 0 -- -- 62
2020-09-03 02:00:00 12 5 Sudoeste 12 Sudoeste 0 -- -- 57
2020-09-03 01:00:00 12.7 0 Calma 4 Sur 0 -- -- 53
2020-09-03 00:00:00 14.3 0 Calma 4 Sur 0 -- -- 48
2020-09-02 23:00:00 17.7 0 Calma 14 Norte 0 -- -- 41
2020-09-02 22:00:00 20.5 8 Norte 21 Norte 0 -- -- 36
2020-09-02 21:00:00 22.1 8 Norte 19 Norte 0 -- -- 30
2020-09-02 20:00:00 24.8 5 Nordeste 13 Nordeste 0 -- -- 24
2020-09-02 19:00:00 25.5 5 Nordeste 17 Norte 0 -- -- 24
2020-09-02 18:00:00 26.3 4 Noroeste 21 Norte 0 -- -- 24
2020-09-02 17:00:00 26 8 Norte 15 Norte 0 -- -- 26
2020-09-02 16:00:00 25.3 8 Norte 20 Norte 0 -- -- 26
2020-09-02 15:00:00 24.1 8 Noroeste 21 Norte 0 -- -- 30
2020-09-02 14:00:00 23.1 8 Este 17 Norte 0 -- -- 33
2020-09-02 13:00:00 22.5 4 Sudoeste 17 Norte 0 -- -- 36
2020-09-02 12:00:00 20.3 7 Nordeste 16 Norte 0 -- -- 40
2020-09-02 11:00:00 18.6 6 Norte 15 Norte 0 -- -- 47
2020-09-02 10:00:00 16.6 6 Norte 11 Norte 0 -- -- 54
2020-09-02 09:00:00 12.3 3 Sur 7 Sudoeste 0 -- -- 70
2020-09-02 08:00:00 8.9 3 Sur 6 Sudoeste 0 -- -- 77
2020-09-02 07:00:00 9.6 3 Sudoeste 6 Sudoeste 0 -- -- 74
2020-09-02 06:00:00 10.3 3 Sudoeste 9 Sur 0 -- -- 73
2020-09-02 05:00:00 11.3 3 Sur 8 Sudeste 0 -- -- 67
2020-09-02 04:00:00 12.1 0 Calma 15 Oeste 0 -- -- 61
2020-09-02 03:00:00 13.2 0 Calma 14 Norte 0 -- -- 57
2020-09-02 02:00:00 14.3 6 Norte 15 Norte 0 -- -- 54
2020-09-02 01:00:00 14.6 0 Calma 16 Norte 0 -- -- 49
2020-09-02 00:00:00 15.5 9 Noroeste 23 Norte 0 -- -- 48
2020-09-01 23:00:00 16.9 10 Noroeste 25 Noroeste 0 -- -- 46
2020-09-01 22:00:00 19 5 Nordeste 12 Nordeste 0 -- -- 37
2020-09-01 21:00:00 20.9 9 Nordeste 28 Nordeste 0 -- -- 35
2020-09-01 20:00:00 22.6 17 Nordeste 34 Nordeste 0 -- -- 32
2020-09-01 19:00:00 24.9 4 Nordeste 21 Nordeste 0 -- -- 23
2020-09-01 18:00:00 25.8 8 Nordeste 21 Nordeste 0 -- -- 23
2020-09-01 17:00:00 24.5 10 Nordeste 21 Este 0 -- -- 24
2020-09-01 16:00:00 25 6 Sudeste 19 Noroeste 0 -- -- 24
2020-09-01 15:00:00 23.7 6 Nordeste 20 Nordeste 0 -- -- 28
2020-09-01 14:00:00 23 6 Nordeste 17 Nordeste 0 -- -- 31
2020-09-01 13:00:00 22 5 Este 14 Este 0 -- -- 32
2020-09-01 12:00:00 19.7 4 Noroeste 8 Oeste 0 -- -- 36
2020-09-01 11:00:00 17.5 3 Sudeste 9 Nordeste 0 -- -- 37
2020-09-01 10:00:00 15.3 3 Norte 6 Norte 0 -- -- 42
2020-09-01 09:00:00 12.8 4 Sur 19 Oeste 0 -- -- 49
2020-09-01 08:00:00 11.4 2 Sudeste 10 Sudoeste 0 -- -- 53
2020-09-01 07:00:00 11.7 5 Sudoeste 12 Sudoeste 0 -- -- 51
2020-09-01 06:00:00 11.3 9 Sudoeste 14 Sudoeste 0 -- -- 52
2020-09-01 05:00:00 10.9 9 Sudoeste 13 Sudoeste 0 -- -- 52
2020-09-01 04:00:00 11.2 9 Sudoeste 13 Sudoeste 0 -- -- 51
2020-09-01 03:00:00 11.9 10 Oeste 17 Sudoeste 0 -- -- 48
2020-09-01 02:00:00 12.3 9 Sudoeste 12 Sudoeste 0 -- -- 46
2020-09-01 01:00:00 12.8 5 Sudoeste 11 Sudoeste 0 -- -- 44
2020-09-01 00:00:00 14.2 0 Calma 9 Sudoeste 0 -- -- 40
2020-08-31 23:00:00 16.3 6 Noroeste 17 Oeste 0 -- -- 36
2020-08-31 22:00:00 18.7 11 Oeste 15 Oeste 0 -- -- 32
2020-08-31 21:00:00 21.4 10 Oeste 16 Oeste 0 -- -- 27
2020-08-31 20:00:00 23.2 8 Sudoeste 16 Sudoeste 0 -- -- 23
2020-08-31 19:00:00 24.2 10 Sudoeste 31 Sur 0 -- -- 21
2020-08-31 18:00:00 25.9 15 Sudoeste 24 Sudoeste 0 -- -- 19
2020-08-31 17:00:00 25.7 11 Sur 28 Sudoeste 0 -- -- 18
2020-08-31 16:00:00 25.6 6 Sudoeste 22 Sudeste 0 -- -- 20
2020-08-31 15:00:00 24.1 5 Sudeste 16 Sudeste 0 -- -- 23
2020-08-31 14:00:00 22.7 6 Oeste 17 Sudoeste 0 -- -- 27
2020-08-31 13:00:00 20.8 6 Noroeste 14 Oeste 0 -- -- 32
2020-08-31 12:00:00 18.4 4 Sudeste 15 Sudeste 0 -- -- 40
2020-08-31 11:00:00 15.4 4 Sudoeste 8 Sudoeste 0 -- -- 52
2020-08-31 10:00:00 12.8 4 Oeste 11 Oeste 0 -- -- 64
2020-08-31 09:00:00 8.5 10 Sudoeste 15 Sudoeste 0 -- -- 78
2020-08-31 08:00:00 5.9 11 Sudoeste 15 Sudoeste 0 -- -- 83
2020-08-31 07:00:00 5.9 10 Sudoeste 16 Sudoeste 0 -- -- 83
2020-08-31 06:00:00 6.3 8 Sudoeste 11 Sudoeste 0 -- -- 82
2020-08-31 05:00:00 6.4 6 Sudoeste 11 Sudoeste 0 -- -- 80
2020-08-31 04:00:00 6.7 4 Sur 11 Sudoeste 0 -- -- 79
2020-08-31 03:00:00 7.3 6 Sudoeste 11 Sudoeste 0 -- -- 78
2020-08-31 02:00:00 7.8 4 Sudoeste 9 Sudoeste 0 -- -- 72
2020-08-31 01:00:00 9.7 2 Sudoeste 4 Sudoeste 0 -- -- 65
2020-08-31 00:00:00 10.9 3 Noroeste 6 Norte 0 -- -- 64
2020-08-30 23:00:00 13.1 3 Nordeste 17 Norte 0 -- -- 58
2020-08-30 22:00:00 14.2 5 Norte 20 Norte 0 -- -- 51
2020-08-30 21:00:00 15.6 11 Norte 31 Noroeste 0 -- -- 47
2020-08-30 20:00:00 17.6 14 Norte 30 Norte 0 -- -- 40
2020-08-30 19:00:00 18.7 6 Norte 22 Nordeste 0 -- -- 33
2020-08-30 18:00:00 19 7 Norte 26 Noroeste 0 -- -- 31
2020-08-30 17:00:00 20.9 8 Nordeste 24 Noroeste 0 -- -- 29
2020-08-30 16:00:00 21 12 Sudoeste 30 Oeste 0 -- -- 28
2020-08-30 15:00:00 19.4 9 Noroeste 23 Noroeste 0 -- -- 32
2020-08-30 14:00:00 18.2 9 Noroeste 23 Noroeste 0 -- -- 36
2020-08-30 13:00:00 18 8 Noroeste 21 Norte 0 -- -- 39
2020-08-30 12:00:00 16.2 9 Norte 21 Oeste 0 -- -- 46
2020-08-30 11:00:00 14.6 5 Noroeste 12 Sudoeste 0 -- -- 52
2020-08-30 10:00:00 12.3 6 Sur 16 Sudoeste 0 -- -- 61
2020-08-30 09:00:00 9.1 9 Sudoeste 15 Sudoeste 0 -- -- 74
2020-08-30 08:00:00 6.5 9 Sudoeste 15 Sudoeste 0 -- -- 81
2020-08-30 07:00:00 6.5 7 Sudoeste 17 Sudoeste 0 -- -- 80
2020-08-30 06:00:00 6.9 8 Sudoeste 18 Oeste 0 -- -- 78
2020-08-30 05:00:00 6.7 8 Sudoeste 13 Sudoeste 0 -- -- 81
2020-08-30 04:00:00 7.7 6 Oeste 10 Sudoeste 0 -- -- 80
2020-08-30 03:00:00 8.5 8 Sudoeste 19 Oeste 0 -- -- 76
2020-08-30 02:00:00 9.9 7 Noroeste 14 Oeste 0 -- -- 75
2020-08-30 01:00:00 10.7 2 Sudoeste 16 Oeste 0 -- -- 69
2020-08-30 00:00:00 11.9 12 Oeste 28 Oeste 0 -- -- 67
2020-08-29 23:00:00 12.9 14 Oeste 28 Oeste 0 -- -- 62
2020-08-29 22:00:00 13.3 9 Oeste 19 Oeste 0 -- -- 63
2020-08-29 21:00:00 13.9 12 Oeste 26 Oeste 0 -- -- 54
2020-08-29 20:00:00 14.9 11 Oeste 38 Noroeste 0 -- -- 50
2020-08-29 19:00:00 17.1 27 Oeste 42 Oeste 0 -- -- 41
2020-08-29 18:00:00 19.7 31 Oeste 51 Noroeste 0 -- -- 39
2020-08-29 17:00:00 20.6 27 Oeste 44 Oeste 0 -- -- 35
2020-08-29 16:00:00 21.2 21 Oeste 36 Oeste 0 -- -- 32
2020-08-29 15:00:00 21.2 15 Oeste 33 Oeste 0 -- -- 32
2020-08-29 14:00:00 19.9 17 Oeste 30 Oeste 0 -- -- 38
2020-08-29 13:00:00 18.8 6 Noroeste 28 Oeste 0 -- -- 40
2020-08-29 12:00:00 17.3 9 Noroeste 26 Oeste 0 -- -- 45
2020-08-29 11:00:00 16.9 11 Noroeste 26 Noroeste 0 -- -- 45
2020-08-29 10:00:00 15 3 Noroeste 17 Oeste 0 -- -- 53
2020-08-29 09:00:00 11.2 3 Norte 7 Norte 0 -- -- 68
2020-08-29 08:00:00 8.7 6 Sudoeste 10 Sudoeste 0 -- -- 75
2020-08-29 07:00:00 9.9 3 Sudoeste 5 Sudoeste 0 -- -- 70
2020-08-29 06:00:00 12.1 0 Calma 5 Norte 0 -- -- 63
2020-08-29 05:00:00 13.4 4 Norte 12 Norte 0 -- -- 59
2020-08-29 04:00:00 13.7 5 Nordeste 17 Norte 0 -- -- 62
2020-08-29 03:00:00 13.7 12 Norte 31 Norte 0 -- -- 64
2020-08-29 02:00:00 14 12 Noroeste 33 Norte 0 -- -- 66
2020-08-29 01:00:00 14.3 17 Noroeste 34 Noroeste 0 -- -- 66
2020-08-29 00:00:00 14.6 18 Noroeste 30 Noroeste 0 -- -- 70
2020-08-28 23:00:00 15 15 Noroeste 33 Norte 0 -- -- 70
2020-08-28 22:00:00 16 18 Noroeste 31 Noroeste 0 -- -- 68
2020-08-28 21:00:00 20.1 15 Nordeste 31 Nordeste 0 -- -- 60
2020-08-28 20:00:00 23 17 Nordeste 39 Nordeste 0 -- -- 53
2020-08-28 19:00:00 27.8 16 Noroeste 35 Oeste 0 -- -- 33
2020-08-28 18:00:00 29.8 20 Oeste 35 Oeste 0 -- -- 34
2020-08-28 17:00:00 30.5 13 Oeste 29 Oeste 0 -- -- 34
2020-08-28 16:00:00 29.9 13 Oeste 33 Oeste 0 -- -- 37
2020-08-28 15:00:00 29 4 Sudoeste 26 Oeste 0 -- -- 36
2020-08-28 14:00:00 28.8 8 Noroeste 27 Oeste 0 -- -- 39
2020-08-28 13:00:00 27.6 12 Noroeste 30 Oeste 0 -- -- 39
2020-08-28 12:00:00 25.6 13 Noroeste 27 Noroeste 0 -- -- 44
2020-08-28 11:00:00 23.9 6 Oeste 19 Noroeste 0 -- -- 50
2020-08-28 10:00:00 20.6 8 Norte 19 Noroeste 0 -- -- 58
2020-08-28 09:00:00 19.9 11 Noroeste 18 Noroeste 0 -- -- 59
2020-08-28 08:00:00 17.9 0 Calma 9 Sudoeste 0 -- -- 68
2020-08-28 07:00:00 17.9 5 Sudoeste 15 Sudoeste 0 -- -- 69
2020-08-28 06:00:00 18.2 9 Oeste 13 Oeste 0 -- -- 66
2020-08-28 05:00:00 18 8 Sudoeste 13 Sudoeste 0 -- -- 61
2020-08-28 04:00:00 18.2 5 Sudoeste 13 Sur 0 -- -- 61
2020-08-28 03:00:00 18.7 5 Sudoeste 12 Sudoeste 0 -- -- 54
2020-08-28 02:00:00 19.4 0 Calma 4 Sur 0 -- -- 49
2020-08-28 01:00:00 20.1 3 Sudoeste 9 Sudoeste 0 -- -- 44
2020-08-28 00:00:00 21.6 6 Sudoeste 9 Oeste 0 -- -- 41
2020-08-27 23:00:00 23.5 4 Sudoeste 14 Oeste 0 -- -- 35
2020-08-27 22:00:00 26.2 7 Sudoeste 19 Oeste 0 -- -- 31
2020-08-27 21:00:00 29.8 14 Oeste 22 Oeste 0 -- -- 26
2020-08-27 20:00:00 31.8 9 Noroeste 20 Noroeste 0 -- -- 24
2020-08-27 19:00:00 33.6 14 Oeste 31 Oeste 0 -- -- 22
2020-08-27 18:00:00 34.6 19 Sudoeste 41 Oeste 0 -- -- 24
2020-08-27 17:00:00 35.1 10 Oeste 30 Sudoeste 0 -- -- 24
2020-08-27 16:00:00 35 11 Sudoeste 28 Sudoeste 0 -- -- 23
2020-08-27 15:00:00 33.5 6 Noroeste 28 Oeste 0 -- -- 25
2020-08-27 14:00:00 32.5 10 Norte 19 Norte 0 -- -- 29
2020-08-27 13:00:00 31.1 4 Norte 15 Nordeste 0 -- -- 34
2020-08-27 12:00:00 28.7 6 Nordeste 15 Nordeste 0 -- -- 41
2020-08-27 11:00:00 26.9 4 Este 9 Nordeste 0 -- -- 45
2020-08-27 10:00:00 23.3 2 Sudoeste 10 Oeste 0 -- -- 53
2020-08-27 09:00:00 19.4 7 Sudoeste 13 Oeste 0 -- -- 63
2020-08-27 08:00:00 16.1 9 Sudoeste 12 Sudoeste 0 -- -- 72
2020-08-27 07:00:00 16.3 6 Sudoeste 13 Oeste 0 -- -- 69
2020-08-27 06:00:00 16.6 8 Sudoeste 13 Sudoeste 0 -- -- 68
2020-08-27 05:00:00 17.2 7 Sudoeste 12 Sudoeste 0 -- -- 66
2020-08-27 04:00:00 17.6 9 Sudoeste 12 Sudoeste 0 -- -- 64
2020-08-27 03:00:00 18.5 8 Sudoeste 10 Sudoeste 0 -- -- 60
2020-08-27 02:00:00 19.6 3 Sudoeste 14 Sudoeste 0 -- -- 54
2020-08-27 01:00:00 20.6 9 Sudoeste 12 Sudoeste 0 -- -- 53
2020-08-27 00:00:00 22.4 3 Este 8 Sudoeste 0 -- -- 47
2020-08-26 23:00:00 26 2 Este 15 Norte 0 -- -- 39
2020-08-26 22:00:00 28.1 12 Nordeste 23 Nordeste 0 -- -- 36
2020-08-26 21:00:00 29.3 11 Oeste 15 Oeste 0 -- -- 28
2020-08-26 20:00:00 33.8 8 Sudoeste 26 Sur 0 -- -- 21
2020-08-26 19:00:00 34.9 16 Sur 28 Sudoeste 0 -- -- 19
2020-08-26 18:00:00 36.1 13 Sudoeste 35 Sudoeste 0 -- -- 18
2020-08-26 17:00:00 36.1 16 Sudoeste 44 Sudoeste 0 -- -- 18
2020-08-26 16:00:00 35.9 21 Sur 44 Sudoeste 0 -- -- 19
2020-08-26 15:00:00 35.4 15 Sudoeste 33 Sudoeste 0 -- -- 21
2020-08-26 14:00:00 33.6 7 Oeste 18 Nordeste 0 -- -- 23
2020-08-26 13:00:00 31.2 7 Nordeste 15 Norte 0 -- -- 34
2020-08-26 12:00:00 28.2 7 Este 14 Norte 0 -- -- 40
2020-08-26 11:00:00 26 6 Nordeste 13 Nordeste 0 -- -- 43
2020-08-26 10:00:00 22.7 2 Nordeste 5 Nordeste 0 -- -- 48
2020-08-26 09:00:00 18.5 6 Sudoeste 15 Sudoeste 0 -- -- 58
2020-08-26 08:00:00 15.2 10 Sudoeste 15 Sudoeste 0 -- -- 67
2020-08-26 07:00:00 15.9 12 Sudoeste 19 Sudoeste 0 -- -- 61
2020-08-26 06:00:00 16.6 11 Sudoeste 16 Sudoeste 0 -- -- 58
2020-08-26 05:00:00 16.8 8 Sudoeste 12 Oeste 0 -- -- 57
2020-08-26 04:00:00 18 10 Sudoeste 13 Sudoeste 0 -- -- 53
2020-08-26 03:00:00 18.7 10 Sudoeste 15 Sudoeste 0 -- -- 50
2020-08-26 02:00:00 19.3 6 Sur 15 Sudoeste 0 -- -- 47
2020-08-26 01:00:00 20.6 11 Sudoeste 15 Sudoeste 0 -- -- 45
2020-08-26 00:00:00 22.2 7 Sudoeste 12 Sudoeste 0 -- -- 39